sensor_id;sensor_type;location;lat;lon;timestamp;P1;durP1;ratioP1;P2;durP2;ratioP2
37131;SDS011;23035;50.032;21.978;2023-09-18T00:09:15;11.02;;;6.78;;
37131;SDS011;23035;50.032;21.978;2023-09-18T00:14:20;14.10;;;8.85;;
37131;SDS011;23035;50.032;21.978;2023-09-18T00:19:24;12.10;;;8.35;;
37131;SDS011;23035;50.032;21.978;2023-09-18T00:24:28;12.10;;;8.25;;
37131;SDS011;23035;50.032;21.978;2023-09-18T00:29:34;12.98;;;8.27;;
37131;SDS011;23035;50.032;21.978;2023-09-18T00:34:38;11.77;;;7.80;;
37131;SDS011;23035;50.032;21.978;2023-09-18T00:39:41;11.13;;;7.10;;
37131;SDS011;23035;50.032;21.978;2023-09-18T00:44:47;9.75;;;7.35;;
37131;SDS011;23035;50.032;21.978;2023-09-18T00:49:51;8.38;;;6.90;;
37131;SDS011;23035;50.032;21.978;2023-09-18T00:54:57;9.68;;;7.53;;
37131;SDS011;23035;50.032;21.978;2023-09-18T01:00:05;9.82;;;7.40;;
37131;SDS011;23035;50.032;21.978;2023-09-18T01:05:10;9.48;;;7.78;;
37131;SDS011;23035;50.032;21.978;2023-09-18T01:10:14;9.93;;;7.88;;
37131;SDS011;23035;50.032;21.978;2023-09-18T01:15:22;8.82;;;7.07;;
37131;SDS011;23035;50.032;21.978;2023-09-18T01:20:29;11.27;;;7.60;;
37131;SDS011;23035;50.032;21.978;2023-09-18T01:25:35;11.30;;;7.68;;
37131;SDS011;23035;50.032;21.978;2023-09-18T01:30:39;14.20;;;10.00;;
37131;SDS011;23035;50.032;21.978;2023-09-18T01:35:45;19.85;;;10.07;;
37131;SDS011;23035;50.032;21.978;2023-09-18T01:40:51;22.83;;;10.18;;
37131;SDS011;23035;50.032;21.978;2023-09-18T01:45:57;13.80;;;9.18;;
37131;SDS011;23035;50.032;21.978;2023-09-18T01:51:01;17.25;;;9.77;;
37131;SDS011;23035;50.032;21.978;2023-09-18T01:56:07;17.75;;;10.07;;
37131;SDS011;23035;50.032;21.978;2023-09-18T02:01:11;20.95;;;10.10;;
37131;SDS011;23035;50.032;21.978;2023-09-18T02:06:15;11.85;;;9.02;;
37131;SDS011;23035;50.032;21.978;2023-09-18T02:11:21;17.50;;;9.73;;
37131;SDS011;23035;50.032;21.978;2023-09-18T02:16:25;10.85;;;7.15;;
37131;SDS011;23035;50.032;21.978;2023-09-18T02:21:29;15.73;;;11.02;;
37131;SDS011;23035;50.032;21.978;2023-09-18T02:26:35;11.07;;;8.23;;
37131;SDS011;23035;50.032;21.978;2023-09-18T02:31:40;9.88;;;7.85;;
37131;SDS011;23035;50.032;21.978;2023-09-18T02:36:44;11.75;;;7.55;;
37131;SDS011;23035;50.032;21.978;2023-09-18T02:41:49;10.48;;;7.78;;
37131;SDS011;23035;50.032;21.978;2023-09-18T02:46:54;10.45;;;8.18;;
37131;SDS011;23035;50.032;21.978;2023-09-18T02:51:58;14.38;;;7.57;;
37131;SDS011;23035;50.032;21.978;2023-09-18T02:57:03;14.38;;;8.82;;
37131;SDS011;23035;50.032;21.978;2023-09-18T03:02:08;16.95;;;9.15;;
37131;SDS011;23035;50.032;21.978;2023-09-18T03:07:12;23.80;;;10.05;;
37131;SDS011;23035;50.032;21.978;2023-09-18T03:12:18;15.32;;;9.30;;
37131;SDS011;23035;50.032;21.978;2023-09-18T03:17:22;12.93;;;9.27;;
37131;SDS011;23035;50.032;21.978;2023-09-18T03:22:27;11.77;;;9.10;;
37131;SDS011;23035;50.032;21.978;2023-09-18T03:27:33;16.92;;;10.05;;
37131;SDS011;23035;50.032;21.978;2023-09-18T03:37:41;13.93;;;9.70;;
37131;SDS011;23035;50.032;21.978;2023-09-18T03:42:46;14.07;;;9.23;;
37131;SDS011;23035;50.032;21.978;2023-09-18T03:47:51;16.13;;;8.60;;
37131;SDS011;23035;50.032;21.978;2023-09-18T03:52:56;15.70;;;9.77;;
37131;SDS011;23035;50.032;21.978;2023-09-18T03:58:03;17.55;;;8.43;;
37131;SDS011;23035;50.032;21.978;2023-09-18T04:03:07;11.38;;;8.73;;
37131;SDS011;23035;50.032;21.978;2023-09-18T04:08:12;13.05;;;8.10;;
37131;SDS011;23035;50.032;21.978;2023-09-18T04:13:17;18.35;;;9.07;;
37131;SDS011;23035;50.032;21.978;2023-09-18T04:18:22;16.63;;;10.65;;
37131;SDS011;23035;50.032;21.978;2023-09-18T04:23:26;16.23;;;10.03;;
37131;SDS011;23035;50.032;21.978;2023-09-18T04:28:32;15.13;;;10.43;;
37131;SDS011;23035;50.032;21.978;2023-09-18T04:33:40;17.65;;;10.13;;
37131;SDS011;23035;50.032;21.978;2023-09-18T04:38:49;13.45;;;9.20;;
37131;SDS011;23035;50.032;21.978;2023-09-18T04:43:55;13.43;;;8.93;;
37131;SDS011;23035;50.032;21.978;2023-09-18T04:48:59;13.05;;;9.05;;
37131;SDS011;23035;50.032;21.978;2023-09-18T04:54:06;13.15;;;9.40;;
37131;SDS011;23035;50.032;21.978;2023-09-18T04:59:11;10.70;;;8.95;;
37131;SDS011;23035;50.032;21.978;2023-09-18T05:04:18;18.15;;;9.80;;
37131;SDS011;23035;50.032;21.978;2023-09-18T05:09:22;13.77;;;8.75;;
37131;SDS011;23035;50.032;21.978;2023-09-18T05:14:27;17.40;;;9.73;;
37131;SDS011;23035;50.032;21.978;2023-09-18T05:19:31;17.35;;;9.02;;
37131;SDS011;23035;50.032;21.978;2023-09-18T05:24:35;15.55;;;9.65;;
37131;SDS011;23035;50.032;21.978;2023-09-18T05:29:41;18.92;;;9.90;;
37131;SDS011;23035;50.032;21.978;2023-09-18T05:34:45;16.35;;;9.32;;
37131;SDS011;23035;50.032;21.978;2023-09-18T05:39:49;14.25;;;8.73;;
37131;SDS011;23035;50.032;21.978;2023-09-18T05:44:54;16.55;;;9.80;;
37131;SDS011;23035;50.032;21.978;2023-09-18T05:49:58;14.43;;;9.27;;
37131;SDS011;23035;50.032;21.978;2023-09-18T05:55:03;89.30;;;20.52;;
37131;SDS011;23035;50.032;21.978;2023-09-18T06:00:09;99.80;;;27.80;;
37131;SDS011;23035;50.032;21.978;2023-09-18T06:05:15;50.80;;;17.30;;
37131;SDS011;23035;50.032;21.978;2023-09-18T06:10:20;22.42;;;10.90;;
37131;SDS011;23035;50.032;21.978;2023-09-18T06:15:25;20.92;;;11.27;;
37131;SDS011;23035;50.032;21.978;2023-09-18T06:20:29;12.43;;;9.75;;
37131;SDS011;23035;50.032;21.978;2023-09-18T06:25:34;18.00;;;9.18;;
37131;SDS011;23035;50.032;21.978;2023-09-18T06:30:39;19.63;;;8.68;;
37131;SDS011;23035;50.032;21.978;2023-09-18T06:35:43;15.82;;;9.25;;
37131;SDS011;23035;50.032;21.978;2023-09-18T06:40:47;11.00;;;8.20;;
37131;SDS011;23035;50.032;21.978;2023-09-18T06:45:54;13.57;;;8.20;;
37131;SDS011;23035;50.032;21.978;2023-09-18T06:51:00;19.00;;;12.50;;
37131;SDS011;23035;50.032;21.978;2023-09-18T06:56:04;17.85;;;10.93;;
37131;SDS011;23035;50.032;21.978;2023-09-18T07:01:09;13.38;;;8.70;;
37131;SDS011;23035;50.032;21.978;2023-09-18T07:06:13;13.18;;;7.80;;
37131;SDS011;23035;50.032;21.978;2023-09-18T07:11:18;12.43;;;8.70;;
37131;SDS011;23035;50.032;21.978;2023-09-18T07:16:25;17.00;;;8.68;;
37131;SDS011;23035;50.032;21.978;2023-09-18T07:21:29;12.55;;;8.15;;
37131;SDS011;23035;50.032;21.978;2023-09-18T07:26:33;13.23;;;8.90;;
37131;SDS011;23035;50.032;21.978;2023-09-18T07:31:38;15.73;;;7.63;;
37131;SDS011;23035;50.032;21.978;2023-09-18T07:36:42;9.63;;;7.32;;
37131;SDS011;23035;50.032;21.978;2023-09-18T07:41:48;14.30;;;7.82;;
37131;SDS011;23035;50.032;21.978;2023-09-18T07:46:54;8.13;;;6.80;;
37131;SDS011;23035;50.032;21.978;2023-09-18T07:51:58;9.00;;;6.93;;
37131;SDS011;23035;50.032;21.978;2023-09-18T07:57:02;11.15;;;7.05;;
37131;SDS011;23035;50.032;21.978;2023-09-18T08:02:08;8.23;;;6.80;;
37131;SDS011;23035;50.032;21.978;2023-09-18T08:07:12;10.55;;;7.10;;
37131;SDS011;23035;50.032;21.978;2023-09-18T08:12:17;7.80;;;7.00;;
37131;SDS011;23035;50.032;21.978;2023-09-18T08:17:22;10.90;;;7.30;;
37131;SDS011;23035;50.032;21.978;2023-09-18T08:22:26;9.05;;;6.75;;
37131;SDS011;23035;50.032;21.978;2023-09-18T08:27:30;10.13;;;7.13;;
37131;SDS011;23035;50.032;21.978;2023-09-18T08:37:41;8.07;;;6.60;;
37131;SDS011;23035;50.032;21.978;2023-09-18T08:42:46;6.85;;;6.10;;
37131;SDS011;23035;50.032;21.978;2023-09-18T08:47:52;8.00;;;6.28;;
37131;SDS011;23035;50.032;21.978;2023-09-18T08:52:58;7.93;;;6.32;;
37131;SDS011;23035;50.032;21.978;2023-09-18T08:58:07;11.45;;;6.85;;
37131;SDS011;23035;50.032;21.978;2023-09-18T09:03:13;9.95;;;6.63;;
37131;SDS011;23035;50.032;21.978;2023-09-18T09:08:17;14.85;;;7.32;;
37131;SDS011;23035;50.032;21.978;2023-09-18T09:13:23;14.32;;;7.75;;
37131;SDS011;23035;50.032;21.978;2023-09-18T09:18:49;9.35;;;6.70;;
37131;SDS011;23035;50.032;21.978;2023-09-18T09:23:54;9.70;;;7.07;;
37131;SDS011;23035;50.032;21.978;2023-09-18T09:29:02;12.05;;;7.38;;
37131;SDS011;23035;50.032;21.978;2023-09-18T09:34:25;12.35;;;7.55;;
37131;SDS011;23035;50.032;21.978;2023-09-18T09:39:32;12.15;;;7.80;;
37131;SDS011;23035;50.032;21.978;2023-09-18T09:44:36;7.63;;;6.47;;
37131;SDS011;23035;50.032;21.978;2023-09-18T09:49:46;14.38;;;7.10;;
37131;SDS011;23035;50.032;21.978;2023-09-18T09:54:51;7.05;;;5.97;;
37131;SDS011;23035;50.032;21.978;2023-09-18T10:00:02;7.70;;;6.35;;
37131;SDS011;23035;50.032;21.978;2023-09-18T10:05:26;11.15;;;6.38;;
37131;SDS011;23035;50.032;21.978;2023-09-18T10:10:33;7.55;;;6.03;;
37131;SDS011;23035;50.032;21.978;2023-09-18T10:15:39;12.05;;;6.05;;
37131;SDS011;23035;50.032;21.978;2023-09-18T10:21:02;6.65;;;5.90;;
37131;SDS011;23035;50.032;21.978;2023-09-18T10:26:10;11.23;;;8.48;;
37131;SDS011;23035;50.032;21.978;2023-09-18T10:31:19;9.65;;;5.68;;
37131;SDS011;23035;50.032;21.978;2023-09-18T10:36:25;10.40;;;6.60;;
37131;SDS011;23035;50.032;21.978;2023-09-18T10:41:36;7.13;;;5.82;;
37131;SDS011;23035;50.032;21.978;2023-09-18T10:46:41;9.55;;;6.30;;
37131;SDS011;23035;50.032;21.978;2023-09-18T10:51:47;8.73;;;5.72;;
37131;SDS011;23035;50.032;21.978;2023-09-18T10:56:52;8.95;;;5.57;;
37131;SDS011;23035;50.032;21.978;2023-09-18T11:01:56;14.13;;;5.30;;
37131;SDS011;23035;50.032;21.978;2023-09-18T11:07:07;7.80;;;5.57;;
37131;SDS011;23035;50.032;21.978;2023-09-18T11:12:12;9.85;;;5.18;;
37131;SDS011;23035;50.032;21.978;2023-09-18T11:17:28;7.00;;;4.85;;
37131;SDS011;23035;50.032;21.978;2023-09-18T11:22:38;8.25;;;5.38;;
37131;SDS011;23035;50.032;21.978;2023-09-18T11:27:51;11.70;;;5.45;;
37131;SDS011;23035;50.032;21.978;2023-09-18T11:32:58;6.20;;;4.97;;
37131;SDS011;23035;50.032;21.978;2023-09-18T11:38:04;5.10;;;4.60;;
37131;SDS011;23035;50.032;21.978;2023-09-18T11:43:19;7.65;;;5.00;;
37131;SDS011;23035;50.032;21.978;2023-09-18T11:48:28;8.90;;;4.90;;
37131;SDS011;23035;50.032;21.978;2023-09-18T11:53:38;6.15;;;4.57;;
37131;SDS011;23035;50.032;21.978;2023-09-18T11:58:46;7.22;;;5.03;;
37131;SDS011;23035;50.032;21.978;2023-09-18T12:03:54;7.30;;;5.18;;
37131;SDS011;23035;50.032;21.978;2023-09-18T12:09:00;5.97;;;5.38;;
37131;SDS011;23035;50.032;21.978;2023-09-18T12:14:04;9.27;;;5.22;;
37131;SDS011;23035;50.032;21.978;2023-09-18T12:19:09;6.20;;;4.68;;
37131;SDS011;23035;50.032;21.978;2023-09-18T12:24:22;5.63;;;4.88;;
37131;SDS011;23035;50.032;21.978;2023-09-18T12:29:29;7.75;;;4.93;;
37131;SDS011;23035;50.032;21.978;2023-09-18T12:34:40;5.75;;;4.45;;
37131;SDS011;23035;50.032;21.978;2023-09-18T12:39:46;5.88;;;4.53;;
37131;SDS011;23035;50.032;21.978;2023-09-18T12:44:54;6.07;;;4.90;;
37131;SDS011;23035;50.032;21.978;2023-09-18T12:50:04;5.50;;;4.45;;
37131;SDS011;23035;50.032;21.978;2023-09-18T12:55:21;7.88;;;4.55;;
37131;SDS011;23035;50.032;21.978;2023-09-18T13:00:27;4.68;;;4.05;;
37131;SDS011;23035;50.032;21.978;2023-09-18T13:05:31;4.90;;;4.20;;
37131;SDS011;23035;50.032;21.978;2023-09-18T13:10:45;6.40;;;5.55;;
37131;SDS011;23035;50.032;21.978;2023-09-18T13:15:49;9.95;;;6.35;;
37131;SDS011;23035;50.032;21.978;2023-09-18T13:20:58;11.93;;;6.05;;
37131;SDS011;23035;50.032;21.978;2023-09-18T13:26:11;10.20;;;7.72;;
37131;SDS011;23035;50.032;21.978;2023-09-18T13:31:19;7.97;;;5.45;;
37131;SDS011;23035;50.032;21.978;2023-09-18T13:36:23;7.60;;;4.70;;
37131;SDS011;23035;50.032;21.978;2023-09-18T13:41:29;10.05;;;4.72;;
37131;SDS011;23035;50.032;21.978;2023-09-18T13:46:34;7.70;;;5.15;;
37131;SDS011;23035;50.032;21.978;2023-09-18T13:51:43;8.40;;;4.72;;
37131;SDS011;23035;50.032;21.978;2023-09-18T14:01:53;6.60;;;4.93;;
37131;SDS011;23035;50.032;21.978;2023-09-18T14:06:57;8.02;;;5.38;;
37131;SDS011;23035;50.032;21.978;2023-09-18T14:12:03;6.47;;;4.45;;
37131;SDS011;23035;50.032;21.978;2023-09-18T14:17:10;10.50;;;5.13;;
37131;SDS011;23035;50.032;21.978;2023-09-18T14:22:14;7.22;;;5.20;;
37131;SDS011;23035;50.032;21.978;2023-09-18T14:27:20;6.07;;;4.50;;
37131;SDS011;23035;50.032;21.978;2023-09-18T14:32:24;7.22;;;4.72;;
37131;SDS011;23035;50.032;21.978;2023-09-18T14:37:29;11.75;;;7.28;;
37131;SDS011;23035;50.032;21.978;2023-09-18T14:42:34;9.50;;;7.80;;
37131;SDS011;23035;50.032;21.978;2023-09-18T14:47:38;19.55;;;14.48;;
37131;SDS011;23035;50.032;21.978;2023-09-18T14:52:42;11.82;;;5.65;;
37131;SDS011;23035;50.032;21.978;2023-09-18T14:57:48;11.98;;;7.30;;
37131;SDS011;23035;50.032;21.978;2023-09-18T15:02:56;11.02;;;6.90;;
37131;SDS011;23035;50.032;21.978;2023-09-18T15:08:04;12.27;;;7.10;;
37131;SDS011;23035;50.032;21.978;2023-09-18T15:13:10;12.00;;;6.30;;
37131;SDS011;23035;50.032;21.978;2023-09-18T15:18:14;6.60;;;5.88;;
37131;SDS011;23035;50.032;21.978;2023-09-18T15:23:20;9.45;;;5.80;;
37131;SDS011;23035;50.032;21.978;2023-09-18T15:28:27;8.77;;;6.10;;
37131;SDS011;23035;50.032;21.978;2023-09-18T15:33:32;9.27;;;6.05;;
37131;SDS011;23035;50.032;21.978;2023-09-18T15:38:36;7.57;;;5.60;;
37131;SDS011;23035;50.032;21.978;2023-09-18T15:48:47;11.65;;;6.30;;
37131;SDS011;23035;50.032;21.978;2023-09-18T15:53:52;8.50;;;5.95;;
37131;SDS011;23035;50.032;21.978;2023-09-18T15:59:00;8.65;;;6.53;;
37131;SDS011;23035;50.032;21.978;2023-09-18T16:04:06;11.40;;;6.50;;
37131;SDS011;23035;50.032;21.978;2023-09-18T16:09:10;9.15;;;5.80;;
37131;SDS011;23035;50.032;21.978;2023-09-18T16:19:25;10.15;;;6.20;;
37131;SDS011;23035;50.032;21.978;2023-09-18T16:24:29;14.43;;;6.43;;
37131;SDS011;23035;50.032;21.978;2023-09-18T16:29:35;10.85;;;7.35;;
37131;SDS011;23035;50.032;21.978;2023-09-18T16:34:42;8.75;;;6.57;;
37131;SDS011;23035;50.032;21.978;2023-09-18T16:39:46;12.82;;;7.85;;
37131;SDS011;23035;50.032;21.978;2023-09-18T16:44:51;12.93;;;7.22;;
37131;SDS011;23035;50.032;21.978;2023-09-18T16:49:56;10.27;;;7.63;;
37131;SDS011;23035;50.032;21.978;2023-09-18T16:55:01;10.83;;;8.37;;
37131;SDS011;23035;50.032;21.978;2023-09-18T17:00:10;18.88;;;8.75;;
37131;SDS011;23035;50.032;21.978;2023-09-18T17:05:14;11.45;;;7.45;;
37131;SDS011;23035;50.032;21.978;2023-09-18T17:10:19;15.30;;;7.97;;
37131;SDS011;23035;50.032;21.978;2023-09-18T17:15:24;13.45;;;7.85;;
37131;SDS011;23035;50.032;21.978;2023-09-18T17:20:30;13.65;;;8.48;;
37131;SDS011;23035;50.032;21.978;2023-09-18T17:25:36;15.15;;;8.90;;
37131;SDS011;23035;50.032;21.978;2023-09-18T17:30:42;14.25;;;8.48;;
37131;SDS011;23035;50.032;21.978;2023-09-18T17:35:46;12.25;;;8.02;;
37131;SDS011;23035;50.032;21.978;2023-09-18T17:45:57;16.25;;;7.57;;
37131;SDS011;23035;50.032;21.978;2023-09-18T17:51:01;11.43;;;8.05;;
37131;SDS011;23035;50.032;21.978;2023-09-18T17:56:06;10.33;;;7.20;;
37131;SDS011;23035;50.032;21.978;2023-09-18T18:01:11;16.85;;;9.55;;
37131;SDS011;23035;50.032;21.978;2023-09-18T18:06:15;13.65;;;9.35;;
37131;SDS011;23035;50.032;21.978;2023-09-18T18:11:19;16.67;;;8.68;;
37131;SDS011;23035;50.032;21.978;2023-09-18T18:16:25;19.97;;;8.40;;
37131;SDS011;23035;50.032;21.978;2023-09-18T18:26:35;11.35;;;8.48;;
37131;SDS011;23035;50.032;21.978;2023-09-18T18:31:40;13.07;;;7.93;;
37131;SDS011;23035;50.032;21.978;2023-09-18T18:36:45;14.88;;;7.80;;
37131;SDS011;23035;50.032;21.978;2023-09-18T18:41:51;12.77;;;8.23;;
37131;SDS011;23035;50.032;21.978;2023-09-18T18:46:56;9.82;;;7.43;;
37131;SDS011;23035;50.032;21.978;2023-09-18T18:52:03;12.65;;;8.20;;
37131;SDS011;23035;50.032;21.978;2023-09-18T18:57:07;13.77;;;8.13;;
37131;SDS011;23035;50.032;21.978;2023-09-18T19:02:15;11.57;;;8.43;;
37131;SDS011;23035;50.032;21.978;2023-09-18T19:07:19;13.88;;;7.60;;
37131;SDS011;23035;50.032;21.978;2023-09-18T19:12:24;10.70;;;6.93;;
37131;SDS011;23035;50.032;21.978;2023-09-18T19:22:35;9.87;;;6.40;;
37131;SDS011;23035;50.032;21.978;2023-09-18T19:27:39;12.32;;;6.63;;
37131;SDS011;23035;50.032;21.978;2023-09-18T19:32:45;9.27;;;6.43;;
37131;SDS011;23035;50.032;21.978;2023-09-18T19:42:53;13.68;;;7.78;;
37131;SDS011;23035;50.032;21.978;2023-09-18T19:47:58;11.32;;;7.00;;
37131;SDS011;23035;50.032;21.978;2023-09-18T19:53:02;16.27;;;8.50;;
37131;SDS011;23035;50.032;21.978;2023-09-18T19:58:10;14.07;;;8.27;;
37131;SDS011;23035;50.032;21.978;2023-09-18T20:03:18;13.45;;;8.27;;
37131;SDS011;23035;50.032;21.978;2023-09-18T20:08:23;11.65;;;7.97;;
37131;SDS011;23035;50.032;21.978;2023-09-18T20:13:27;11.18;;;7.35;;
37131;SDS011;23035;50.032;21.978;2023-09-18T20:18:33;10.47;;;6.90;;
37131;SDS011;23035;50.032;21.978;2023-09-18T20:23:37;10.80;;;6.50;;
37131;SDS011;23035;50.032;21.978;2023-09-18T20:28:43;8.88;;;6.07;;
37131;SDS011;23035;50.032;21.978;2023-09-18T20:33:49;14.93;;;6.63;;
37131;SDS011;23035;50.032;21.978;2023-09-18T20:38:53;12.25;;;7.38;;
37131;SDS011;23035;50.032;21.978;2023-09-18T20:43:58;8.98;;;6.45;;
37131;SDS011;23035;50.032;21.978;2023-09-18T20:49:03;9.35;;;6.18;;
37131;SDS011;23035;50.032;21.978;2023-09-18T20:54:08;10.07;;;6.07;;
37131;SDS011;23035;50.032;21.978;2023-09-18T20:59:14;9.95;;;6.55;;
37131;SDS011;23035;50.032;21.978;2023-09-18T21:04:20;9.20;;;5.78;;
37131;SDS011;23035;50.032;21.978;2023-09-18T21:09:24;7.60;;;5.38;;
37131;SDS011;23035;50.032;21.978;2023-09-18T21:14:29;10.20;;;6.07;;
37131;SDS011;23035;50.032;21.978;2023-09-18T21:19:34;11.52;;;7.13;;
37131;SDS011;23035;50.032;21.978;2023-09-18T21:24:39;11.40;;;6.25;;
37131;SDS011;23035;50.032;21.978;2023-09-18T21:29:47;13.82;;;6.80;;
37131;SDS011;23035;50.032;21.978;2023-09-18T21:34:52;9.32;;;7.03;;
37131;SDS011;23035;50.032;21.978;2023-09-18T21:39:57;11.70;;;6.53;;
37131;SDS011;23035;50.032;21.978;2023-09-18T21:45:02;10.55;;;6.78;;
37131;SDS011;23035;50.032;21.978;2023-09-18T21:50:08;13.23;;;6.47;;
37131;SDS011;23035;50.032;21.978;2023-09-18T21:55:13;11.45;;;6.40;;
37131;SDS011;23035;50.032;21.978;2023-09-18T22:00:17;11.05;;;5.85;;
37131;SDS011;23035;50.032;21.978;2023-09-18T22:05:26;9.73;;;6.00;;
37131;SDS011;23035;50.032;21.978;2023-09-18T22:10:30;10.75;;;5.85;;
37131;SDS011;23035;50.032;21.978;2023-09-18T22:15:34;8.15;;;6.00;;
37131;SDS011;23035;50.032;21.978;2023-09-18T22:20:39;8.70;;;5.57;;
37131;SDS011;23035;50.032;21.978;2023-09-18T22:25:43;12.60;;;6.45;;
37131;SDS011;23035;50.032;21.978;2023-09-18T22:30:48;13.18;;;6.63;;
37131;SDS011;23035;50.032;21.978;2023-09-18T22:35:55;9.55;;;5.90;;
37131;SDS011;23035;50.032;21.978;2023-09-18T22:57:27;20.52;;;8.73;;
37131;SDS011;23035;50.032;21.978;2023-09-18T23:02:33;23.02;;;9.25;;
37131;SDS011;23035;50.032;21.978;2023-09-18T23:07:42;19.70;;;9.05;;
37131;SDS011;23035;50.032;21.978;2023-09-18T23:12:49;28.23;;;9.52;;
37131;SDS011;23035;50.032;21.978;2023-09-18T23:17:54;24.98;;;9.25;;
37131;SDS011;23035;50.032;21.978;2023-09-18T23:22:59;10.88;;;7.25;;
37131;SDS011;23035;50.032;21.978;2023-09-18T23:28:07;11.32;;;7.20;;
37131;SDS011;23035;50.032;21.978;2023-09-18T23:33:11;8.60;;;6.25;;
37131;SDS011;23035;50.032;21.978;2023-09-18T23:38:17;10.40;;;6.10;;
37131;SDS011;23035;50.032;21.978;2023-09-18T23:43:25;12.32;;;6.03;;
37131;SDS011;23035;50.032;21.978;2023-09-18T23:48:36;10.23;;;5.90;;
37131;SDS011;23035;50.032;21.978;2023-09-18T23:53:44;9.82;;;5.97;;
37131;SDS011;23035;50.032;21.978;2023-09-18T23:58:49;14.02;;;7.03;;
